Time;durP1;ratioP1;P1;durP2;ratioP2;P2;SDS_P1;SDS_P2;PMS_P1;PMS_P2;Temp;Humidity;BMP_temperature;BMP_pressure;BME280_temperature;BME280_humidity;BME280_pressure;Samples;Min_cycle;Max_cycle;Signal;HPM_P1;HPM_P2
2020/12/05 00:01:14;;;;;;;0.00;0.00;;;;;;;;;;4938079;28;20126;-67
2020/12/05 00:03:46;;;;;;;0.00;0.00;;;;;;;;;;4939060;28;20559;-68
2020/12/05 00:06:12;;;;;;;1.75;1.65;;;;;;;;;;4929176;28;20561;-67
2020/12/05 00:08:39;;;;;;;0.10;0.10;;;;;;;;;;4937907;28;20048;-68
2020/12/05 00:11:07;;;;;;;0.00;0.00;;;;;;;;;;4936938;28;20791;-68
2020/12/05 00:13:35;;;;;;;0.10;0.10;;;;;;;;;;4942678;28;20043;-67
2020/12/05 00:16:01;;;;;;;0.70;0.70;;;;;;;;;;4953338;28;20027;-67
2020/12/05 00:18:29;;;;;;;0.00;0.00;;;;;;;;;;4937279;28;20121;-69
2020/12/05 00:20:54;;;;;;;0.00;0.00;;;;;;;;;;4935892;28;20122;-68
2020/12/05 00:23:22;;;;;;;0.45;0.45;;;;;;;;;;4936808;28;20045;-69
2020/12/05 00:25:50;;;;;;;0.00;0.00;;;;;;;;;;4937843;28;20479;-68
2020/12/05 00:28:18;;;;;;;1.17;1.10;;;;;;;;;;4937879;28;20112;-68
2020/12/05 00:30:43;;;;;;;0.30;0.30;;;;;;;;;;4936742;28;20512;-68
2020/12/05 00:33:10;;;;;;;0.45;0.45;;;;;;;;;;4938102;28;20071;-68
2020/12/05 00:35:39;;;;;;;0.00;0.00;;;;;;;;;;4941185;28;20039;-68
2020/12/05 00:38:04;;;;;;;0.40;0.40;;;;;;;;;;4937005;28;20179;-67
2020/12/05 00:40:32;;;;;;;0.00;0.00;;;;;;;;;;4939365;28;20035;-68
2020/12/05 00:42:58;;;;;;;0.63;0.63;;;;;;;;;;4939675;28;20027;-68
2020/12/05 00:45:26;;;;;;;0.00;0.00;;;;;;;;;;4950508;28;20035;-69
2020/12/05 00:47:54;;;;;;;0.05;0.05;;;;;;;;;;4937191;28;20058;-68
2020/12/05 00:50:22;;;;;;;0.85;0.85;;;;;;;;;;4921640;28;20110;-68
2020/12/05 00:52:53;;;;;;;0.00;0.00;;;;;;;;;;4937644;28;20767;-68
2020/12/05 00:55:18;;;;;;;0.22;0.22;;;;;;;;;;4937766;28;20155;-68
2020/12/05 00:57:43;;;;;;;0.00;0.00;;;;;;;;;;4926040;28;20045;-68
2020/12/05 01:00:10;;;;;;;0.00;0.00;;;;;;;;;;4936690;28;20069;-68
2020/12/05 01:02:38;;;;;;;0.00;0.00;;;;;;;;;;4938431;28;20050;-68
2020/12/05 01:05:04;;;;;;;0.00;0.00;;;;;;;;;;4953017;28;20427;-67
2020/12/05 01:07:31;;;;;;;0.40;0.40;;;;;;;;;;4937289;28;20055;-68
2020/12/05 01:09:57;;;;;;;0.00;0.00;;;;;;;;;;4932914;28;20114;-68
2020/12/05 01:12:24;;;;;;;10.95;0.80;;;;;;;;;;4942519;28;20027;-68
2020/12/05 01:14:50;;;;;;;0.00;0.00;;;;;;;;;;4937077;28;20126;-70
2020/12/05 01:17:24;;;;;;;0.05;0.05;;;;;;;;;;4937869;28;20031;-68
2020/12/05 01:19:56;;;;;;;0.00;0.00;;;;;;;;;;4937668;28;20031;-68
2020/12/05 01:22:22;;;;;;;0.00;0.00;;;;;;;;;;4932381;28;20440;-69
2020/12/05 01:24:47;;;;;;;0.00;0.00;;;;;;;;;;4942172;28;20090;-68
2020/12/05 01:27:13;;;;;;;3.50;2.17;;;;;;;;;;4937019;28;20031;-67
2020/12/05 01:29:38;;;;;;;0.00;0.00;;;;;;;;;;4928025;28;20440;-68
2020/12/05 01:32:06;;;;;;;0.00;0.00;;;;;;;;;;4957047;28;20035;-68
2020/12/05 01:34:43;;;;;;;1.02;1.02;;;;;;;;;;4953934;28;20027;-68
2020/12/05 01:37:11;;;;;;;0.00;0.00;;;;;;;;;;4940411;28;20710;-68
2020/12/05 01:39:40;;;;;;;0.65;0.65;;;;;;;;;;4941270;28;20700;-68
2020/12/05 01:42:05;;;;;;;0.00;0.00;;;;;;;;;;4940700;28;20342;-68
2020/12/05 01:44:36;;;;;;;0.70;0.70;;;;;;;;;;4941867;28;20042;-68
2020/12/05 01:47:02;;;;;;;0.80;0.80;;;;;;;;;;4940493;28;20048;-67
2020/12/05 01:49:31;;;;;;;0.00;0.00;;;;;;;;;;4956420;28;20039;-67
2020/12/05 01:52:02;;;;;;;0.00;0.00;;;;;;;;;;4941258;28;20597;-67
2020/12/05 01:54:32;;;;;;;0.00;0.00;;;;;;;;;;4941493;28;20103;-68
2020/12/05 01:56:59;;;;;;;0.00;0.00;;;;;;;;;;4944136;28;20070;-68
2020/12/05 01:59:27;;;;;;;0.00;0.00;;;;;;;;;;4956429;28;20042;-68
2020/12/05 02:01:55;;;;;;;0.08;0.08;;;;;;;;;;4940995;28;20506;-68
2020/12/05 02:04:26;;;;;;;0.00;0.00;;;;;;;;;;4941738;28;20513;-68
2020/12/05 02:06:56;;;;;;;0.00;0.00;;;;;;;;;;4938367;28;20458;-68
2020/12/05 02:09:28;;;;;;;0.10;0.10;;;;;;;;;;4941405;28;20027;-68
2020/12/05 02:12:05;;;;;;;0.20;0.20;;;;;;;;;;4940571;28;20215;-68
2020/12/05 02:14:33;;;;;;;0.00;0.00;;;;;;;;;;4941477;28;20031;-67
2020/12/05 02:17:00;;;;;;;0.00;0.00;;;;;;;;;;4940698;28;20031;-68
2020/12/05 02:19:29;;;;;;;0.00;0.00;;;;;;;;;;4941707;28;20980;-68
2020/12/05 02:22:02;;;;;;;0.00;0.00;;;;;;;;;;4945223;28;20030;-68
2020/12/05 02:24:35;;;;;;;0.00;0.00;;;;;;;;;;4940702;28;20122;-67
2020/12/05 02:27:02;;;;;;;0.10;0.10;;;;;;;;;;4941739;28;20129;-67
2020/12/05 02:29:32;;;;;;;0.70;0.70;;;;;;;;;;4938522;28;20505;-68
2020/12/05 02:32:00;;;;;;;0.00;0.00;;;;;;;;;;4941376;28;20126;-68
2020/12/05 02:34:25;;;;;;;0.32;0.32;;;;;;;;;;4943985;28;20042;-67
2020/12/05 02:36:56;;;;;;;0.00;0.00;;;;;;;;;;4938653;28;20039;-68
2020/12/05 02:39:25;;;;;;;0.00;0.00;;;;;;;;;;4947762;28;20064;-68
2020/12/05 02:41:53;;;;;;;0.00;0.00;;;;;;;;;;4938234;28;20154;-68
2020/12/05 02:44:19;;;;;;;0.00;0.00;;;;;;;;;;4939581;28;20049;-67
2020/12/05 02:46:49;;;;;;;0.00;0.00;;;;;;;;;;4927184;28;20030;-68
2020/12/05 02:49:17;;;;;;;0.00;0.00;;;;;;;;;;4939727;28;20057;-67
2020/12/05 02:51:45;;;;;;;0.00;0.00;;;;;;;;;;4939182;28;20019;-67
2020/12/05 02:54:13;;;;;;;0.00;0.00;;;;;;;;;;4938420;28;20102;-68
2020/12/05 02:56:38;;;;;;;0.00;0.00;;;;;;;;;;4939533;28;20614;-68
2020/12/05 02:59:06;;;;;;;0.32;0.32;;;;;;;;;;4939139;28;20042;-67
2020/12/05 03:01:31;;;;;;;0.75;0.75;;;;;;;;;;4926715;28;20077;-68
2020/12/05 03:04:02;;;;;;;0.10;0.10;;;;;;;;;;4940566;28;20043;-68
2020/12/05 03:06:27;;;;;;;0.00;0.00;;;;;;;;;;4939425;28;20066;-68
2020/12/05 03:08:53;;;;;;;0.15;0.15;;;;;;;;;;4927296;28;20038;-68
2020/12/05 03:11:23;;;;;;;0.00;0.00;;;;;;;;;;4940128;28;20055;-68
2020/12/05 03:13:54;;;;;;;0.00;0.00;;;;;;;;;;4938919;28;20031;-68
2020/12/05 03:16:27;;;;;;;0.00;0.00;;;;;;;;;;4938362;28;20031;-68
2020/12/05 03:18:55;;;;;;;0.00;0.00;;;;;;;;;;4940097;28;20058;-68
2020/12/05 03:21:22;;;;;;;0.00;0.00;;;;;;;;;;4937450;28;20109;-68
2020/12/05 03:23:50;;;;;;;0.80;0.52;;;;;;;;;;4938042;28;20034;-67
2020/12/05 03:26:16;;;;;;;0.88;0.30;;;;;;;;;;4942610;28;20034;-68
2020/12/05 03:28:44;;;;;;;1.25;1.05;;;;;;;;;;4938994;28;20034;-68
2020/12/05 03:31:24;;;;;;;0.00;0.00;;;;;;;;;;4939630;28;20255;-67
2020/12/05 03:33:55;;;;;;;0.08;0.08;;;;;;;;;;4938434;28;20030;-67
2020/12/05 03:36:26;;;;;;;0.00;0.00;;;;;;;;;;4938889;28;20149;-68
2020/12/05 03:38:53;;;;;;;0.00;0.00;;;;;;;;;;4939070;28;20518;-67
2020/12/05 03:41:23;;;;;;;0.32;0.32;;;;;;;;;;4939617;28;20027;-68
2020/12/05 03:43:48;;;;;;;0.45;0.45;;;;;;;;;;4938499;28;20051;-67
2020/12/05 03:46:16;;;;;;;1.95;0.52;;;;;;;;;;4942316;28;20045;-68
2020/12/05 03:48:42;;;;;;;0.10;0.10;;;;;;;;;;4938191;28;20163;-68
2020/12/05 03:51:07;;;;;;;0.00;0.00;;;;;;;;;;4925781;28;20542;-67
2020/12/05 03:53:40;;;;;;;0.00;0.00;;;;;;;;;;4937238;28;20121;-67
2020/12/05 03:56:07;;;;;;;0.00;0.00;;;;;;;;;;4939709;28;20961;-67
2020/12/05 03:58:33;;;;;;;0.00;0.00;;;;;;;;;;4942920;28;20102;-67
2020/12/05 04:00:58;;;;;;;0.00;0.00;;;;;;;;;;4938330;28;20047;-68
2020/12/05 04:03:26;;;;;;;0.00;0.00;;;;;;;;;;4939436;28;20039;-68
2020/12/05 04:05:51;;;;;;;0.40;0.40;;;;;;;;;;4937408;28;20027;-69
2020/12/05 04:08:17;;;;;;;0.00;0.00;;;;;;;;;;4936876;28;20098;-67
2020/12/05 04:10:45;;;;;;;0.00;0.00;;;;;;;;;;4924902;28;20046;-68
2020/12/05 04:13:10;;;;;;;0.00;0.00;;;;;;;;;;4938816;28;20098;-67
2020/12/05 04:15:36;;;;;;;0.00;0.00;;;;;;;;;;4938998;28;20513;-67
2020/12/05 04:18:01;;;;;;;0.00;0.00;;;;;;;;;;4939184;28;20731;-68
2020/12/05 04:20:27;;;;;;;0.43;0.43;;;;;;;;;;4926372;28;20075;-67
2020/12/05 04:22:55;;;;;;;0.22;0.22;;;;;;;;;;4936079;28;20582;-68
2020/12/05 04:25:23;;;;;;;0.00;0.00;;;;;;;;;;4936255;28;20047;-67
2020/12/05 04:27:50;;;;;;;0.00;0.00;;;;;;;;;;4938834;28;20149;-68
2020/12/05 04:30:16;;;;;;;0.75;0.75;;;;;;;;;;4943392;28;20049;-68
2020/12/05 04:32:41;;;;;;;0.00;0.00;;;;;;;;;;4938937;28;20782;-68
2020/12/05 04:35:09;;;;;;;0.95;0.95;;;;;;;;;;4939210;28;20031;-68
2020/12/05 04:37:35;;;;;;;0.00;0.00;;;;;;;;;;4937033;28;20276;-67
2020/12/05 04:40:04;;;;;;;0.55;0.55;;;;;;;;;;4939246;28;20101;-67
2020/12/05 04:42:30;;;;;;;0.30;0.30;;;;;;;;;;4937929;28;20474;-69
2020/12/05 04:44:58;;;;;;;0.00;0.00;;;;;;;;;;4942938;28;20376;-68
2020/12/05 04:47:28;;;;;;;0.00;0.00;;;;;;;;;;4937470;28;20070;-68
2020/12/05 04:49:57;;;;;;;0.28;0.28;;;;;;;;;;4936707;28;20327;-69
2020/12/05 04:52:25;;;;;;;0.03;0.03;;;;;;;;;;4935696;28;20648;-68
2020/12/05 04:54:52;;;;;;;0.00;0.00;;;;;;;;;;4938284;28;20796;-68
2020/12/05 04:57:19;;;;;;;0.00;0.00;;;;;;;;;;4939189;28;20033;-68
2020/12/05 04:59:45;;;;;;;0.00;0.00;;;;;;;;;;4942204;28;20035;-68
2020/12/05 05:02:16;;;;;;;0.00;0.00;;;;;;;;;;4935864;28;21138;-68
2020/12/05 05:04:48;;;;;;;0.55;0.55;;;;;;;;;;4942113;28;20035;-67
2020/12/05 05:07:15;;;;;;;0.00;0.00;;;;;;;;;;4939755;28;20039;-68
2020/12/05 05:10:25;;;;;;;1.00;0.90;;;;;;;;;;4957078;28;20149;-67
2020/12/05 05:12:45;;;;;;;0.00;0.00;;;;;;;;;;4940136;28;20039;-68
2020/12/05 05:15:28;;;;;;;0.15;0.10;;;;;;;;;;4940380;28;20034;-67
2020/12/05 05:18:02;;;;;;;0.45;0.45;;;;;;;;;;4957666;28;20651;-68
2020/12/05 05:20:28;;;;;;;0.03;0.03;;;;;;;;;;4946547;28;20210;-68
2020/12/05 05:23:13;;;;;;;0.00;0.00;;;;;;;;;;4940175;28;20030;-68
2020/12/05 05:25:50;;;;;;;0.00;0.00;;;;;;;;;;4938576;28;20378;-68
2020/12/05 05:28:29;;;;;;;0.00;0.00;;;;;;;;;;4941650;28;20087;-68
2020/12/05 05:30:57;;;;;;;0.00;0.00;;;;;;;;;;4941764;28;20051;-68
2020/12/05 05:33:36;;;;;;;0.43;0.43;;;;;;;;;;4955154;28;20030;-68
2020/12/05 05:36:33;;;;;;;0.65;0.65;;;;;;;;;;4945113;28;20023;-68
2020/12/05 05:39:08;;;;;;;0.10;0.10;;;;;;;;;;4926553;28;20411;-67
2020/12/05 05:41:37;;;;;;;0.15;0.15;;;;;;;;;;4954252;28;20460;-68
2020/12/05 05:44:08;;;;;;;0.00;0.00;;;;;;;;;;4941309;28;20030;-68
2020/12/05 05:46:37;;;;;;;0.10;0.10;;;;;;;;;;4938405;28;20431;-67
2020/12/05 05:49:07;;;;;;;0.80;0.80;;;;;;;;;;4940958;28;20038;-67
2020/12/05 05:51:36;;;;;;;0.00;0.00;;;;;;;;;;4939550;28;20034;-68
2020/12/05 05:54:10;;;;;;;0.05;0.05;;;;;;;;;;4941588;28;20119;-67
2020/12/05 05:56:53;;;;;;;0.30;0.30;;;;;;;;;;4940706;28;20042;-68
2020/12/05 05:59:20;;;;;;;0.00;0.00;;;;;;;;;;4940796;28;20030;-67
2020/12/05 06:01:48;;;;;;;0.22;0.22;;;;;;;;;;4941953;28;20027;-68
2020/12/05 06:04:17;;;;;;;0.00;0.00;;;;;;;;;;4940731;28;20278;-67
2020/12/05 06:06:48;;;;;;;0.25;0.25;;;;;;;;;;4940652;28;20663;-68
2020/12/05 06:09:17;;;;;;;1.80;0.75;;;;;;;;;;4939310;28;20027;-67
2020/12/05 06:11:42;;;;;;;0.00;0.00;;;;;;;;;;4941119;28;20091;-68
2020/12/05 06:14:13;;;;;;;0.00;0.00;;;;;;;;;;4942014;28;20023;-67
2020/12/05 06:16:41;;;;;;;0.00;0.00;;;;;;;;;;4956334;28;20030;-69
2020/12/05 06:19:08;;;;;;;0.25;0.25;;;;;;;;;;4941025;28;20096;-67
2020/12/05 06:21:39;;;;;;;0.10;0.10;;;;;;;;;;4938340;28;20077;-67
2020/12/05 06:24:07;;;;;;;0.00;0.00;;;;;;;;;;4938114;28;20046;-67
2020/12/05 06:26:38;;;;;;;0.00;0.00;;;;;;;;;;4937875;28;20122;-67
2020/12/05 06:29:06;;;;;;;0.00;0.00;;;;;;;;;;4939497;28;20295;-67
2020/12/05 06:31:42;;;;;;;0.10;0.10;;;;;;;;;;4939642;28;20054;-67
2020/12/05 06:37:33;;;;;;;0.00;0.00;;;;;;;;;;4936712;28;20051;-67
2020/12/05 06:40:06;;;;;;;0.00;0.00;;;;;;;;;;4950333;28;20073;-69
2020/12/05 06:42:41;;;;;;;0.08;0.08;;;;;;;;;;4941404;28;20089;-68
2020/12/05 06:45:06;;;;;;;0.00;0.00;;;;;;;;;;4940351;28;20046;-69
2020/12/05 06:47:34;;;;;;;0.00;0.00;;;;;;;;;;4940027;28;20035;-66
2020/12/05 06:50:03;;;;;;;0.03;0.03;;;;;;;;;;4944223;28;20026;-67
2020/12/05 06:52:30;;;;;;;0.00;0.00;;;;;;;;;;4939849;28;20038;-66
2020/12/05 06:55:02;;;;;;;0.10;0.10;;;;;;;;;;4940113;28;20367;-68
2020/12/05 06:57:33;;;;;;;0.00;0.00;;;;;;;;;;4939269;28;20032;-67
2020/12/05 07:00:10;;;;;;;0.00;0.00;;;;;;;;;;4939219;28;20245;-67
2020/12/05 07:02:40;;;;;;;0.00;0.00;;;;;;;;;;4939779;28;21379;-67
2020/12/05 07:05:21;;;;;;;1.05;0.70;;;;;;;;;;4944437;28;20047;-67
2020/12/05 07:07:55;;;;;;;0.00;0.00;;;;;;;;;;4942939;28;20361;-67
2020/12/05 07:10:23;;;;;;;;;;;;;;;;;;4943793;28;20390;-67
2020/12/05 07:12:48;;;;;;;0.00;0.00;;;;;;;;;;4940437;28;19913;-66
2020/12/05 07:15:25;;;;;;;0.00;0.00;;;;;;;;;;4947219;28;20809;-66
2020/12/05 07:17:51;;;;;;;0.00;0.00;;;;;;;;;;4939593;28;20058;-66
2020/12/05 07:20:19;;;;;;;0.30;0.30;;;;;;;;;;4944098;28;20263;-65
2020/12/05 07:22:53;;;;;;;1.30;1.23;;;;;;;;;;4943041;28;20034;-66
2020/12/05 07:25:23;;;;;;;0.30;0.30;;;;;;;;;;4935988;28;20039;-66
2020/12/05 07:27:53;;;;;;;1.23;1.20;;;;;;;;;;4936788;28;20090;-66
2020/12/05 07:30:20;;;;;;;0.00;0.00;;;;;;;;;;4939043;28;21889;-66
2020/12/05 07:32:49;;;;;;;0.08;0.08;;;;;;;;;;4939081;28;20098;-65
2020/12/05 07:35:20;;;;;;;0.05;0.05;;;;;;;;;;4939386;28;20682;-66
2020/12/05 07:37:45;;;;;;;0.00;0.00;;;;;;;;;;4938721;28;20077;-66
2020/12/05 07:40:13;;;;;;;0.10;0.10;;;;;;;;;;4937953;28;20045;-65
2020/12/05 07:42:40;;;;;;;0.00;0.00;;;;;;;;;;4938504;28;20128;-66
2020/12/05 07:45:12;;;;;;;0.00;0.00;;;;;;;;;;4938518;28;20034;-63
2020/12/05 07:47:41;;;;;;;0.10;0.10;;;;;;;;;;4939777;28;20034;-64
2020/12/05 07:50:08;;;;;;;0.20;0.20;;;;;;;;;;4939585;28;20071;-64
2020/12/05 07:52:42;;;;;;;0.10;0.10;;;;;;;;;;4937592;28;20345;-64
2020/12/05 07:55:12;;;;;;;0.00;0.00;;;;;;;;;;4939589;28;20031;-65
2020/12/05 07:57:39;;;;;;;0.03;0.03;;;;;;;;;;4936567;28;20480;-63
2020/12/05 08:03:54;;;;;;;0.20;0.20;;;;;;;;;;4938759;28;20077;-61
2020/12/05 08:06:37;;;;;;;0.03;0.03;;;;;;;;;;4937141;28;20035;-61
2020/12/05 08:09:05;;;;;;;0.00;0.00;;;;;;;;;;4935065;28;20063;-61
2020/12/05 08:11:42;;;;;;;0.70;0.10;;;;;;;;;;4938228;28;20031;-60
2020/12/05 08:14:12;;;;;;;2.35;2.20;;;;;;;;;;4937956;28;20436;-61
2020/12/05 08:16:38;;;;;;;0.00;0.00;;;;;;;;;;4939343;28;20121;-62
2020/12/05 08:19:04;;;;;;;0.00;0.00;;;;;;;;;;4935118;28;20031;-61
2020/12/05 08:21:30;;;;;;;0.52;0.52;;;;;;;;;;4936250;28;20035;-61
2020/12/05 08:24:05;;;;;;;0.15;0.15;;;;;;;;;;4921970;28;21958;-62
2020/12/05 08:26:33;;;;;;;0.00;0.00;;;;;;;;;;4937899;28;20039;-60
2020/12/05 08:29:01;;;;;;;0.00;0.00;;;;;;;;;;4940963;28;20034;-62
2020/12/05 08:31:27;;;;;;;0.00;0.00;;;;;;;;;;4937555;28;20377;-62
2020/12/05 08:33:55;;;;;;;0.00;0.00;;;;;;;;;;4938887;28;20027;-60
2020/12/05 08:36:34;;;;;;;1.02;0.95;;;;;;;;;;4938391;28;20635;-60
2020/12/05 08:39:06;;;;;;;0.00;0.00;;;;;;;;;;4945089;28;20035;-60
2020/12/05 08:41:44;;;;;;;0.00;0.00;;;;;;;;;;4942906;28;20037;-61
2020/12/05 08:44:14;;;;;;;0.03;0.03;;;;;;;;;;4940974;28;20046;-60
2020/12/05 08:46:47;;;;;;;0.00;0.00;;;;;;;;;;4941182;28;20687;-61
2020/12/05 08:49:19;;;;;;;0.00;0.00;;;;;;;;;;4947141;28;20726;-63
2020/12/05 08:51:47;;;;;;;0.00;0.00;;;;;;;;;;4945382;28;20039;-61
2020/12/05 08:54:15;;;;;;;1.08;1.02;;;;;;;;;;4940957;28;20047;-61
2020/12/05 08:56:43;;;;;;;0.00;0.00;;;;;;;;;;4942592;28;20031;-61
2020/12/05 08:59:09;;;;;;;0.00;0.00;;;;;;;;;;4938762;28;20645;-61
2020/12/05 09:01:43;;;;;;;0.22;0.22;;;;;;;;;;4945810;28;20035;-61
2020/12/05 09:04:25;;;;;;;0.50;0.22;;;;;;;;;;4940852;28;20212;-61
2020/12/05 09:06:53;;;;;;;0.00;0.00;;;;;;;;;;4939631;28;20035;-61
2020/12/05 09:09:30;;;;;;;0.00;0.00;;;;;;;;;;4941839;28;20038;-61
2020/12/05 09:12:11;;;;;;;0.00;0.00;;;;;;;;;;4941798;28;20043;-61
2020/12/05 09:14:40;;;;;;;0.00;0.00;;;;;;;;;;4956261;28;20390;-61
2020/12/05 09:17:21;;;;;;;0.10;0.10;;;;;;;;;;4946492;28;20062;-60
2020/12/05 09:19:48;;;;;;;0.00;0.00;;;;;;;;;;4942018;28;20440;-60
2020/12/05 09:22:29;;;;;;;0.20;0.20;;;;;;;;;;4941923;28;20041;-61
2020/12/05 09:24:55;;;;;;;0.85;0.73;;;;;;;;;;4941828;28;20185;-60
2020/12/05 09:27:23;;;;;;;0.00;0.00;;;;;;;;;;4941428;28;20470;-60
2020/12/05 09:29:55;;;;;;;0.00;0.00;;;;;;;;;;4938104;28;20391;-60
2020/12/05 09:32:36;;;;;;;0.00;0.00;;;;;;;;;;4941433;28;20117;-61
2020/12/05 09:35:02;;;;;;;0.10;0.10;;;;;;;;;;4940359;28;20129;-60
2020/12/05 09:37:30;;;;;;;0.00;0.00;;;;;;;;;;4940465;28;20046;-61
2020/12/05 09:39:55;;;;;;;0.03;0.03;;;;;;;;;;4938199;28;20174;-61
2020/12/05 09:42:26;;;;;;;0.22;0.22;;;;;;;;;;4940705;28;20047;-60
2020/12/05 09:44:54;;;;;;;0.00;0.00;;;;;;;;;;4947066;28;20035;-61
2020/12/05 09:47:21;;;;;;;0.00;0.00;;;;;;;;;;4928741;28;20061;-59
2020/12/05 09:49:47;;;;;;;0.88;0.88;;;;;;;;;;4943420;28;21585;-59
2020/12/05 09:52:17;;;;;;;0.17;0.17;;;;;;;;;;4940336;28;22230;-61
2020/12/05 09:54:45;;;;;;;1.35;1.25;;;;;;;;;;4940081;28;20043;-60
2020/12/05 09:57:15;;;;;;;5.88;1.67;;;;;;;;;;4941439;28;20568;-61
2020/12/05 09:59:47;;;;;;;0.00;0.00;;;;;;;;;;4942482;28;20042;-61
2020/12/05 10:02:14;;;;;;;0.25;0.25;;;;;;;;;;4939203;28;20076;-60
2020/12/05 10:04:40;;;;;;;0.00;0.00;;;;;;;;;;4942017;28;20077;-60
2020/12/05 10:07:06;;;;;;;0.65;0.43;;;;;;;;;;4940305;28;20039;-60
2020/12/05 10:09:31;;;;;;;1.00;0.65;;;;;;;;;;4939042;28;20047;-60
2020/12/05 10:11:57;;;;;;;0.10;0.10;;;;;;;;;;4947660;28;20801;-60
2020/12/05 10:14:30;;;;;;;0.00;0.00;;;;;;;;;;4940081;28;20043;-59
2020/12/05 10:16:58;;;;;;;0.52;0.52;;;;;;;;;;4944732;28;20059;-61
2020/12/05 10:19:28;;;;;;;0.10;0.10;;;;;;;;;;4940203;28;20066;-60
2020/12/05 10:21:55;;;;;;;0.10;0.10;;;;;;;;;;4940365;28;20058;-61
2020/12/05 10:24:23;;;;;;;0.20;0.20;;;;;;;;;;4949388;28;20084;-61
2020/12/05 10:26:53;;;;;;;0.22;0.22;;;;;;;;;;4928874;28;20062;-59
2020/12/05 10:29:27;;;;;;;2.63;1.38;;;;;;;;;;4939355;28;20038;-60
2020/12/05 10:31:53;;;;;;;0.00;0.00;;;;;;;;;;4940171;28;20058;-60
2020/12/05 10:34:23;;;;;;;0.22;0.22;;;;;;;;;;4940745;28;20027;-59
2020/12/05 10:36:53;;;;;;;0.43;0.43;;;;;;;;;;4940396;28;20022;-60
2020/12/05 10:39:19;;;;;;;0.00;0.00;;;;;;;;;;4939974;28;20822;-59
2020/12/05 10:41:50;;;;;;;0.20;0.20;;;;;;;;;;4940020;28;20376;-60
2020/12/05 10:44:18;;;;;;;0.13;0.13;;;;;;;;;;4941069;28;20166;-60
2020/12/05 10:46:45;;;;;;;0.20;0.20;;;;;;;;;;4938956;28;20743;-60
2020/12/05 10:49:15;;;;;;;0.00;0.00;;;;;;;;;;4942760;28;20494;-60
2020/12/05 10:51:43;;;;;;;0.40;0.35;;;;;;;;;;4935796;28;20495;-59
2020/12/05 10:54:10;;;;;;;0.05;0.05;;;;;;;;;;4936453;28;20146;-60
2020/12/05 10:56:37;;;;;;;0.32;0.32;;;;;;;;;;4939929;28;20165;-60
2020/12/05 10:59:02;;;;;;;0.10;0.10;;;;;;;;;;4940573;28;20097;-60
2020/12/05 11:01:30;;;;;;;0.30;0.30;;;;;;;;;;4941610;28;20066;-60
2020/12/05 11:04:00;;;;;;;0.00;0.00;;;;;;;;;;4939683;28;21925;-60
2020/12/05 11:06:28;;;;;;;0.08;0.08;;;;;;;;;;4944761;28;20038;-60
2020/12/05 11:08:54;;;;;;;0.10;0.10;;;;;;;;;;4938788;28;20031;-60
2020/12/05 11:11:22;;;;;;;0.20;0.20;;;;;;;;;;4938893;28;20052;-60
2020/12/05 11:13:50;;;;;;;0.10;0.10;;;;;;;;;;4939843;28;20324;-59
2020/12/05 11:16:20;;;;;;;2.25;1.95;;;;;;;;;;4939359;28;20562;-60
2020/12/05 11:18:49;;;;;;;0.00;0.00;;;;;;;;;;4938397;28;20031;-61
2020/12/05 11:21:14;;;;;;;0.10;0.10;;;;;;;;;;4936292;28;20031;-61
2020/12/05 11:23:42;;;;;;;0.00;0.00;;;;;;;;;;4937624;28;20486;-61
2020/12/05 11:26:07;;;;;;;0.00;0.00;;;;;;;;;;4935283;28;20089;-59
2020/12/05 11:28:35;;;;;;;0.00;0.00;;;;;;;;;;4939042;28;20039;-62
2020/12/05 11:31:03;;;;;;;0.00;0.00;;;;;;;;;;4936471;28;20112;-61
2020/12/05 11:33:33;;;;;;;0.45;0.45;;;;;;;;;;4939768;28;20187;-62
2020/12/05 11:35:58;;;;;;;0.00;0.00;;;;;;;;;;4952090;28;20516;-62
2020/12/05 11:38:26;;;;;;;0.10;0.10;;;;;;;;;;4937273;28;20046;-61
2020/12/05 11:40:56;;;;;;;0.00;0.00;;;;;;;;;;4938453;28;20030;-61
2020/12/05 11:43:24;;;;;;;0.00;0.00;;;;;;;;;;4938239;28;20066;-62
2020/12/05 11:45:52;;;;;;;0.00;0.00;;;;;;;;;;4923191;28;20043;-63
2020/12/05 11:48:17;;;;;;;0.00;0.00;;;;;;;;;;4938043;28;20034;-63
2020/12/05 11:50:48;;;;;;;0.10;0.10;;;;;;;;;;4951758;28;21119;-63
2020/12/05 11:53:16;;;;;;;0.38;0.15;;;;;;;;;;4954113;28;20336;-64
2020/12/05 11:55:44;;;;;;;0.10;0.10;;;;;;;;;;4937752;28;20094;-65
2020/12/05 11:58:09;;;;;;;0.20;0.03;;;;;;;;;;4939469;28;20490;-63
2020/12/05 12:00:35;;;;;;;0.00;0.00;;;;;;;;;;4936952;28;20043;-64
2020/12/05 12:03:03;;;;;;;0.03;0.03;;;;;;;;;;4926655;28;20118;-64
2020/12/05 12:05:28;;;;;;;0.38;0.38;;;;;;;;;;4937234;28;21688;-62
2020/12/05 12:07:54;;;;;;;0.05;0.05;;;;;;;;;;4920569;28;20390;-65
2020/12/05 12:10:19;;;;;;;0.20;0.15;;;;;;;;;;4937084;28;20542;-64
2020/12/05 12:16:25;;;;;;;0.17;0.17;;;;;;;;;;4936252;28;20033;-64
2020/12/05 12:18:53;;;;;;;0.20;0.20;;;;;;;;;;4926577;28;20080;-65
2020/12/05 12:21:21;;;;;;;0.00;0.00;;;;;;;;;;4941490;28;20050;-64
2020/12/05 12:23:53;;;;;;;1.13;0.60;;;;;;;;;;4938338;28;22045;-65
2020/12/05 12:26:26;;;;;;;0.70;0.70;;;;;;;;;;4938264;28;20488;-64
2020/12/05 12:28:55;;;;;;;0.15;0.13;;;;;;;;;;4936704;28;20039;-65
2020/12/05 12:31:23;;;;;;;0.00;0.00;;;;;;;;;;4936138;28;20046;-64
2020/12/05 12:33:51;;;;;;;0.28;0.28;;;;;;;;;;4941879;28;20030;-65
2020/12/05 12:36:23;;;;;;;0.20;0.20;;;;;;;;;;4936255;28;20442;-65
2020/12/05 12:38:54;;;;;;;0.20;0.20;;;;;;;;;;4923317;28;20045;-64
2020/12/05 12:41:19;;;;;;;0.00;0.00;;;;;;;;;;4942158;28;20035;-66
2020/12/05 12:43:51;;;;;;;0.00;0.00;;;;;;;;;;4938337;28;20038;-66
2020/12/05 12:46:22;;;;;;;0.00;0.00;;;;;;;;;;4925420;28;20051;-66
2020/12/05 12:48:50;;;;;;;0.40;0.40;;;;;;;;;;4937459;28;20043;-66
2020/12/05 12:51:17;;;;;;;0.05;0.05;;;;;;;;;;4925355;28;20106;-65
2020/12/05 12:53:45;;;;;;;0.00;0.00;;;;;;;;;;4936994;28;20150;-66
2020/12/05 12:56:13;;;;;;;0.00;0.00;;;;;;;;;;4937609;28;20047;-64
2020/12/05 12:58:45;;;;;;;0.00;0.00;;;;;;;;;;4939146;28;20313;-66
2020/12/05 13:01:18;;;;;;;0.00;0.00;;;;;;;;;;4937485;28;20043;-66
2020/12/05 13:03:46;;;;;;;0.43;0.43;;;;;;;;;;4942260;28;20438;-65
2020/12/05 13:06:15;;;;;;;0.00;0.00;;;;;;;;;;4937239;28;20023;-64
2020/12/05 13:08:43;;;;;;;0.30;0.30;;;;;;;;;;4938864;28;20581;-65
2020/12/05 13:11:10;;;;;;;0.00;0.00;;;;;;;;;;4953150;28;20387;-65
2020/12/05 13:13:40;;;;;;;0.10;0.10;;;;;;;;;;4935305;28;20037;-65
2020/12/05 13:16:20;;;;;;;0.70;0.50;;;;;;;;;;4940587;28;20031;-66
2020/12/05 13:18:47;;;;;;;0.10;0.10;;;;;;;;;;4937715;28;20113;-66
2020/12/05 13:21:18;;;;;;;0.00;0.00;;;;;;;;;;4936603;28;20128;-66
2020/12/05 13:23:47;;;;;;;0.00;0.00;;;;;;;;;;4936755;28;20074;-64
2020/12/05 13:26:16;;;;;;;0.03;0.03;;;;;;;;;;4940321;28;20148;-65
2020/12/05 13:28:41;;;;;;;0.00;0.00;;;;;;;;;;4942140;28;20570;-66
2020/12/05 13:31:09;;;;;;;0.38;0.38;;;;;;;;;;4939843;28;20608;-67
2020/12/05 13:33:39;;;;;;;0.00;0.00;;;;;;;;;;4937499;28;20039;-66
2020/12/05 13:36:10;;;;;;;0.52;0.52;;;;;;;;;;4956001;28;20576;-67
2020/12/05 13:38:36;;;;;;;0.25;0.25;;;;;;;;;;4945216;28;20575;-68
2020/12/05 13:41:02;;;;;;;0.60;0.15;;;;;;;;;;4956461;28;20202;-68
2020/12/05 13:43:28;;;;;;;0.82;0.80;;;;;;;;;;4940543;28;20492;-66
2020/12/05 13:45:53;;;;;;;0.22;0.22;;;;;;;;;;4942047;28;20130;-68
2020/12/05 13:48:18;;;;;;;0.20;0.20;;;;;;;;;;4940669;28;20194;-66
2020/12/05 13:50:46;;;;;;;0.00;0.00;;;;;;;;;;4939554;28;20083;-68
2020/12/05 13:53:17;;;;;;;0.47;0.47;;;;;;;;;;4941294;28;20109;-67
2020/12/05 13:55:45;;;;;;;0.00;0.00;;;;;;;;;;4940618;28;20109;-68
2020/12/05 13:58:10;;;;;;;0.00;0.00;;;;;;;;;;4939958;28;20053;-67
2020/12/05 14:00:41;;;;;;;0.00;0.00;;;;;;;;;;4941289;28;20590;-66
2020/12/05 14:03:08;;;;;;;0.00;0.00;;;;;;;;;;4941329;28;20368;-68
2020/12/05 14:05:36;;;;;;;0.00;0.00;;;;;;;;;;4940331;28;20061;-67
2020/12/05 14:08:01;;;;;;;0.10;0.10;;;;;;;;;;4938232;28;20488;-67
2020/12/05 14:10:27;;;;;;;0.00;0.00;;;;;;;;;;4941866;28;20050;-67
2020/12/05 14:12:52;;;;;;;0.93;0.93;;;;;;;;;;4940504;28;20035;-69
2020/12/05 14:15:18;;;;;;;0.00;0.00;;;;;;;;;;4954040;28;20027;-68
2020/12/05 14:17:43;;;;;;;0.00;0.00;;;;;;;;;;4940792;28;20046;-68
2020/12/05 14:20:08;;;;;;;13.63;1.63;;;;;;;;;;4939643;28;20462;-67
2020/12/05 14:22:34;;;;;;;0.00;0.00;;;;;;;;;;4927538;28;20039;-67
2020/12/05 14:25:04;;;;;;;0.00;0.00;;;;;;;;;;4928433;28;20039;-67
2020/12/05 14:27:29;;;;;;;0.00;0.00;;;;;;;;;;4954254;28;20035;-67
2020/12/05 14:29:55;;;;;;;0.00;0.00;;;;;;;;;;4944697;28;20038;-68
2020/12/05 14:32:20;;;;;;;0.00;0.00;;;;;;;;;;4927798;28;20038;-67
2020/12/05 14:34:50;;;;;;;0.00;0.00;;;;;;;;;;4936878;28;20046;-68
2020/12/05 14:37:15;;;;;;;1.35;0.90;;;;;;;;;;4939747;28;20031;-68
2020/12/05 14:39:41;;;;;;;0.00;0.00;;;;;;;;;;4940269;28;20395;-66
2020/12/05 14:42:13;;;;;;;0.68;0.68;;;;;;;;;;4939785;28;20533;-69
2020/12/05 14:44:41;;;;;;;0.45;0.45;;;;;;;;;;4937890;28;20122;-68
2020/12/05 14:47:06;;;;;;;0.00;0.00;;;;;;;;;;4937905;28;20450;-67
2020/12/05 14:49:34;;;;;;;0.10;0.10;;;;;;;;;;4935711;28;21175;-68
2020/12/05 14:51:59;;;;;;;0.00;0.00;;;;;;;;;;4939476;28;20037;-67
2020/12/05 14:54:29;;;;;;;0.17;0.17;;;;;;;;;;4939947;28;20464;-68
2020/12/05 15:00:32;;;;;;;0.00;0.00;;;;;;;;;;4935256;28;20073;-68
2020/12/05 15:08:14;;;;;;;0.00;0.00;;;;;;;;;;4905882;29;20319;-67
2020/12/05 15:10:39;;;;;;;0.00;0.00;;;;;;;;;;4888431;29;20230;-67
2020/12/05 15:13:07;;;;;;;0.00;0.00;;;;;;;;;;4907872;29;20058;-66